New Paris, Ohio
Current Conditions -  °F | °C
As of 6:15 PM on Monday 22 Dec 2014 (Local Time) from KVES Reporting Station
Overcast Overcast  
Wind Chill: 33°   Ceiling: 7000
Heat Index: 41°   Visibility: 10mi
Dew Point: 37°   Wind: 14mph
Humidity: 87%   Direction: 120°ESE
Pressure: 29.79"   Gusts: 17mph
Location:  39.86°N, 84.79°W
Report Text: KVES 222315Z AUTO 12012G15KT 10SM BKN070 OVC090 05/03 A2979 RMK AO2
Loading
Personal Weather Stations






























Interactive Weather Map New forecast layout! Learn more

10-Day Weather Forecast

Advertisements
Track Severe Weather on mobile